This is the latest recevied weather packets stored in our database for station/object W6SNO-1. If no packets are shown the sender has not sent any weather packets the latest 10 day(s).
| Time | Temp. | Humidity | Pressure | Rain* | Wind** | Luminosity | Snow |
|---|---|---|---|---|---|---|---|
| 1777664012 | 21.67° C | 54% | 1014.9 hPa | 0 mm | - | 756 W/m² | - |
| 1777663709 | 21.67° C | 56% | 1014.9 hPa | 0 mm | - | 756 W/m² | - |
| 1777663406 | 21.11° C | 57% | 1014.9 hPa | 0 mm | - | 766 W/m² | - |
| 1777663103 | 21.11° C | 57% | 1015.2 hPa | 0 mm | - | 766 W/m² | - |
| 1777662800 | 21.11° C | 59% | 1015.1 hPa | 0 mm | - | 715 W/m² | - |
| 1777662497 | 21.11° C | 59% | 1015.1 hPa | 0 mm | - | 715 W/m² | - |
| 1777662193 | 20.56° C | 59% | 1014.8 hPa | 0 mm | - | 728 W/m² | - |
| 1777661888 | 20° C | 61% | 1015.1 hPa | 0 mm | - | 719 W/m² | - |
| 1777661584 | 20° C | 60% | 1015.2 hPa | 0 mm | - | 731 W/m² | - |
| 1777653699 | 14.44° C | 79% | 1015.9 hPa | 0 mm | - | 463 W/m² | - |
| 1777653396 | 14.44° C | 79% | 1015.7 hPa | 0 mm | - | 463 W/m² | - |
| 1777653093 | 13.89° C | 81% | 1015.5 hPa | 0 mm | - | 66 W/m² | - |
| 1777652789 | 13.89° C | 80% | 1015.7 hPa | 0 mm | - | 64 W/m² | - |
| 1777652486 | 13.89° C | 82% | 1015.7 hPa | 0 mm | - | 61 W/m² | - |
| 1777651274 | 12.78° C | 85% | 1015.6 hPa | 0 mm | - | 59 W/m² | - |
| 1777650970 | 12.78° C | 85% | 1015.6 hPa | 0 mm | - | 59 W/m² | - |
| 1777650668 | 12.78° C | 86% | 1015.6 hPa | 0 mm | - | 58 W/m² | - |
| 1777650365 | 12.78° C | 86% | 1015.3 hPa | 0 mm | - | 58 W/m² | - |
| 1777650061 | 12.22° C | 86% | 1015.3 hPa | 0 mm | - | 58 W/m² | - |
| 1777649759 | 12.78° C | 86% | 1015.3 hPa | 0 mm | - | 58 W/m² | - |
| 1777649456 | 12.78° C | 86% | 1015.4 hPa | 0 mm | - | 62 W/m² | - |
| 1777649152 | 12.78° C | 86% | 1015.1 hPa | 0 mm | - | 86 W/m² | - |
| 1777648850 | 12.78° C | 85% | 1015.1 hPa | 0 mm | - | 109 W/m² | - |
| 1777648546 | 12.22° C | 87% | 1015.3 hPa | 0 mm | - | 131 W/m² | - |
| 1777648244 | 12.22° C | 87% | 1015.4 hPa | 0 mm | - | 106 W/m² | - |
* Rain latest hour (hover to see other rain measurements)
** Current wind speed in m/s (hover to see current wind gust speed)